createdAt,value
2023-06-20T00:01:27.376Z,4.35
2023-06-20T00:03:54.017Z,5.00
2023-06-20T00:06:23.229Z,5.00
2023-06-20T00:08:49.938Z,4.68
2023-06-20T00:11:16.434Z,4.37
2023-06-20T00:13:43.850Z,5.07
2023-06-20T00:16:11.169Z,4.82
2023-06-20T00:18:37.758Z,4.90
2023-06-20T00:21:05.031Z,4.78
2023-06-20T00:23:31.659Z,4.53
2023-06-20T00:25:58.848Z,4.43
2023-06-20T00:28:25.255Z,4.95
2023-06-20T00:30:51.798Z,4.38
2023-06-20T00:33:21.116Z,4.50
2023-06-20T00:35:47.717Z,4.47
2023-06-20T00:38:14.113Z,4.95
2023-06-20T00:40:40.532Z,4.43
2023-06-20T00:43:07.320Z,4.95
2023-06-20T00:45:35.021Z,4.57
2023-06-20T00:48:04.633Z,4.60
2023-06-20T00:50:32.289Z,5.38
2023-06-20T00:53:01.523Z,4.50
2023-06-20T00:55:29.861Z,4.63
2023-06-20T00:58:00.434Z,4.40
2023-06-20T01:00:34.503Z,4.70
2023-06-20T01:03:13.515Z,4.60
2023-06-20T01:05:42.275Z,4.50
2023-06-20T01:08:16.206Z,4.28
2023-06-20T01:10:57.856Z,4.65
2023-06-20T01:13:36.803Z,4.40
2023-06-20T01:16:06.174Z,4.45
2023-06-20T01:18:55.224Z,4.30
2023-06-20T01:21:37.547Z,4.30
2023-06-20T01:24:13.878Z,4.68
2023-06-20T01:26:54.000Z,4.20
2023-06-20T01:29:37.795Z,4.07
2023-06-20T01:32:10.535Z,4.15
2023-06-20T01:34:48.894Z,4.50
2023-06-20T01:37:18.149Z,4.30
2023-06-20T01:39:51.630Z,4.27
2023-06-20T01:42:22.273Z,4.50
2023-06-20T01:44:49.274Z,4.30
2023-06-20T01:47:17.119Z,3.97
2023-06-20T01:49:45.143Z,4.18
2023-06-20T01:52:13.475Z,4.53
2023-06-20T01:54:41.976Z,4.70
2023-06-20T01:57:08.991Z,4.35
2023-06-20T01:59:36.212Z,4.00
2023-06-20T02:02:03.509Z,3.78
2023-06-20T02:04:32.351Z,4.43
2023-06-20T02:06:59.687Z,4.68
2023-06-20T02:09:27.433Z,4.05
2023-06-20T02:11:54.229Z,4.45
2023-06-20T02:14:21.570Z,4.43
2023-06-20T02:16:49.826Z,4.10
2023-06-20T02:19:16.767Z,4.43
2023-06-20T02:21:46.516Z,4.20
2023-06-20T02:24:22.430Z,4.65
2023-06-20T02:26:52.185Z,4.93
2023-06-20T02:29:20.337Z,3.73
2023-06-20T02:31:50.200Z,4.10
2023-06-20T02:34:21.399Z,4.47
2023-06-20T02:36:49.680Z,4.63
2023-06-20T02:39:16.702Z,4.70
2023-06-20T02:41:43.966Z,4.30
2023-06-20T02:44:10.553Z,4.90
2023-06-20T02:47:01.305Z,4.88
2023-06-20T02:49:44.576Z,4.95
2023-06-20T02:52:10.922Z,4.72
2023-06-20T02:55:06.707Z,4.27
2023-06-20T02:57:33.339Z,4.00
2023-06-20T03:00:10.522Z,4.32
2023-06-20T03:02:56.646Z,4.50
2023-06-20T03:05:25.439Z,4.80
2023-06-20T03:07:54.528Z,4.40
2023-06-20T03:10:22.729Z,4.70
2023-06-20T03:12:49.318Z,4.68
2023-06-20T03:15:15.771Z,4.57
2023-06-20T03:17:42.305Z,4.57
2023-06-20T03:20:12.185Z,4.70
2023-06-20T03:22:38.793Z,4.63
2023-06-20T03:25:05.481Z,5.38
2023-06-20T03:27:32.015Z,5.25
2023-06-20T03:30:01.242Z,4.82
2023-06-20T03:32:27.786Z,5.80
2023-06-20T03:34:54.284Z,5.75
2023-06-20T03:37:20.741Z,6.10
2023-06-20T03:39:47.568Z,5.68
2023-06-20T03:42:14.041Z,5.50
2023-06-20T03:44:40.489Z,6.03
2023-06-20T03:47:07.141Z,6.05
2023-06-20T03:49:33.644Z,5.90
2023-06-20T03:52:02.558Z,5.78
2023-06-20T03:54:28.981Z,5.85
2023-06-20T03:56:55.442Z,6.73
2023-06-20T03:59:21.935Z,6.28
2023-06-20T04:01:48.494Z,5.43
2023-06-20T04:04:15.411Z,5.78
2023-06-20T04:06:41.917Z,6.28
2023-06-20T04:09:08.480Z,5.50
2023-06-20T04:11:34.972Z,6.68
2023-06-20T04:14:01.409Z,6.60
2023-06-20T04:16:27.938Z,6.05
2023-06-20T04:18:54.418Z,6.57
2023-06-20T04:21:20.887Z,6.27
2023-06-20T04:23:47.612Z,5.97
2023-06-20T04:26:14.124Z,6.63
2023-06-20T04:28:40.557Z,6.35
2023-06-20T04:31:06.974Z,6.18
2023-06-20T04:33:33.592Z,6.10
2023-06-20T04:36:00.032Z,5.85
2023-06-20T04:38:28.949Z,6.90
2023-06-20T04:40:56.584Z,6.13
2023-06-20T04:43:23.660Z,5.78
2023-06-20T04:45:50.274Z,5.87
2023-06-20T04:48:16.984Z,6.60
2023-06-20T04:50:43.670Z,6.03
2023-06-20T04:53:10.185Z,6.20
2023-06-20T04:55:39.543Z,6.93
2023-06-20T04:58:06.237Z,6.70
2023-06-20T05:00:32.698Z,6.43
2023-06-20T05:02:59.890Z,6.32
2023-06-20T05:05:30.282Z,5.80
2023-06-20T05:07:59.565Z,6.20
2023-06-20T05:10:26.521Z,6.53
2023-06-20T05:12:53.320Z,7.10
2023-06-20T05:15:24.729Z,6.53
2023-06-20T05:17:54.438Z,7.15
2023-06-20T05:20:21.555Z,6.45
2023-06-20T05:22:48.024Z,7.07
2023-06-20T05:25:14.668Z,7.32
2023-06-20T05:27:41.266Z,7.40
2023-06-20T05:30:09.625Z,7.57
2023-06-20T05:32:36.965Z,7.55
2023-06-20T05:35:06.248Z,7.50
2023-06-20T05:37:33.010Z,6.75
2023-06-20T05:40:01.348Z,7.35
2023-06-20T05:42:28.524Z,7.28
2023-06-20T05:44:54.949Z,7.00
2023-06-20T05:47:21.644Z,7.63
2023-06-20T05:49:48.719Z,7.55
2023-06-20T05:52:15.762Z,7.90
2023-06-20T05:54:44.422Z,8.02
2023-06-20T05:57:10.878Z,7.88
2023-06-20T05:59:37.505Z,7.60
2023-06-20T06:02:06.240Z,8.27
2023-06-20T06:04:34.634Z,7.35
2023-06-20T06:07:01.326Z,8.48
2023-06-20T06:09:27.919Z,7.88
2023-06-20T06:11:54.423Z,7.57
2023-06-20T06:14:20.913Z,8.45
2023-06-20T06:16:47.683Z,8.43
2023-06-20T06:19:14.180Z,8.35
2023-06-20T06:21:40.586Z,8.45
2023-06-20T06:24:07.892Z,7.63
2023-06-20T06:26:36.833Z,7.97
2023-06-20T06:29:05.415Z,8.05
2023-06-20T06:31:34.731Z,8.15
2023-06-20T06:34:03.547Z,8.23
2023-06-20T06:36:32.372Z,8.67
2023-06-20T06:39:00.507Z,8.20
2023-06-20T06:41:27.057Z,8.75
2023-06-20T06:43:53.799Z,8.50
2023-06-20T06:46:20.328Z,7.93
2023-06-20T06:48:48.712Z,8.87
2023-06-20T06:51:16.637Z,8.35
2023-06-20T06:53:43.192Z,8.55
2023-06-20T06:56:09.623Z,8.52
2023-06-20T06:58:36.069Z,8.43
2023-06-20T07:01:03.181Z,8.80
2023-06-20T07:03:29.838Z,8.43
2023-06-20T07:05:56.476Z,9.73
2023-06-20T07:08:23.050Z,9.93
2023-06-20T07:10:51.615Z,9.38
2023-06-20T07:13:18.425Z,9.20
2023-06-20T07:15:44.905Z,8.95
2023-06-20T07:18:12.170Z,9.02
2023-06-20T07:20:38.883Z,9.25
2023-06-20T07:23:05.418Z,9.00
2023-06-20T07:25:31.997Z,9.70
2023-06-20T07:27:58.772Z,10.10
2023-06-20T07:30:25.266Z,9.80
2023-06-20T07:32:52.106Z,9.68
2023-06-20T07:35:18.559Z,10.25
2023-06-20T07:37:44.989Z,10.53
2023-06-20T07:40:12.436Z,10.25
2023-06-20T07:42:39.246Z,10.52
2023-06-20T07:45:06.298Z,10.80
2023-06-20T07:47:32.817Z,10.52
2023-06-20T07:49:59.445Z,10.50
2023-06-20T07:52:25.884Z,11.63
2023-06-20T07:54:52.412Z,10.65
2023-06-20T07:57:18.818Z,11.65
2023-06-20T07:59:45.331Z,10.85
2023-06-20T08:02:11.822Z,10.70
2023-06-20T08:04:38.545Z,11.18
2023-06-20T08:07:05.063Z,10.95
2023-06-20T08:09:31.481Z,11.50
2023-06-20T08:11:58.021Z,10.85
2023-06-20T08:14:24.466Z,10.07
2023-06-20T08:16:50.919Z,10.15
2023-06-20T08:19:17.479Z,9.75
2023-06-20T08:21:43.902Z,11.10
2023-06-20T08:24:10.395Z,9.57
2023-06-20T08:26:36.851Z,8.77
2023-06-20T08:29:06.213Z,8.43
2023-06-20T08:31:39.648Z,8.38
2023-06-20T08:34:06.981Z,7.45
2023-06-20T08:36:33.728Z,8.38
2023-06-20T08:39:00.832Z,6.97
2023-06-20T08:41:27.431Z,6.47
2023-06-20T08:43:54.091Z,7.47
2023-06-20T08:46:21.749Z,7.18
2023-06-20T08:48:50.697Z,7.60
2023-06-20T08:51:21.651Z,7.37
2023-06-20T08:53:48.530Z,7.10
2023-06-20T08:56:19.671Z,6.97
2023-06-20T08:58:46.105Z,7.57
2023-06-20T09:01:13.002Z,6.85
2023-06-20T09:03:39.868Z,6.63
2023-06-20T09:06:07.795Z,6.47
2023-06-20T09:08:40.449Z,6.07
2023-06-20T09:11:13.298Z,7.07
2023-06-20T09:13:41.272Z,7.75
2023-06-20T09:16:14.010Z,7.80
2023-06-20T09:18:42.025Z,7.50
2023-06-20T09:21:16.933Z,7.57
2023-06-20T09:23:43.448Z,7.53
2023-06-20T09:26:15.308Z,6.13
2023-06-20T09:28:41.821Z,6.40
2023-06-20T09:31:08.271Z,6.22
2023-06-20T09:33:38.598Z,6.65
2023-06-20T09:36:15.848Z,6.25
2023-06-20T09:38:43.977Z,4.80
2023-06-20T09:41:15.837Z,5.53
2023-06-20T09:43:43.912Z,5.20
2023-06-20T09:46:11.144Z,5.38
2023-06-20T09:48:39.416Z,5.32
2023-06-20T09:51:09.889Z,4.97
2023-06-20T09:53:36.276Z,5.47
2023-06-20T09:56:03.350Z,6.05
2023-06-20T09:58:32.361Z,6.25
2023-06-20T10:00:59.681Z,5.93
2023-06-20T10:03:27.143Z,5.95
2023-06-20T10:05:54.280Z,5.77
2023-06-20T10:08:20.966Z,5.57
2023-06-20T10:10:47.713Z,5.95
2023-06-20T10:13:15.534Z,5.90
2023-06-20T10:15:43.236Z,5.72
2023-06-20T10:18:31.405Z,5.10
2023-06-20T10:20:58.092Z,5.57
2023-06-20T10:23:32.671Z,5.97
2023-06-20T10:26:01.996Z,5.20
2023-06-20T10:28:28.485Z,6.20
2023-06-20T10:30:58.970Z,5.07
2023-06-20T10:33:34.105Z,5.78
2023-06-20T10:36:05.025Z,7.10
2023-06-20T10:38:34.150Z,6.70
2023-06-20T10:41:15.449Z,5.93
2023-06-20T10:44:01.224Z,6.07
2023-06-20T10:46:47.561Z,5.10
2023-06-20T10:49:14.196Z,4.82
2023-06-20T10:51:48.994Z,4.72
2023-06-20T10:54:17.152Z,4.90
2023-06-20T10:56:47.966Z,4.20
2023-06-20T10:59:16.500Z,4.45
2023-06-20T11:01:43.616Z,4.47
2023-06-20T11:04:11.868Z,4.68
2023-06-20T11:06:39.381Z,3.80
2023-06-20T11:09:06.626Z,4.20
2023-06-20T11:11:40.492Z,3.80
2023-06-20T11:14:14.451Z,3.72
2023-06-20T11:16:42.601Z,3.50
2023-06-20T11:19:19.409Z,3.00
2023-06-20T11:21:56.471Z,3.27
2023-06-20T11:24:23.058Z,3.28
2023-06-20T11:26:49.836Z,3.63
2023-06-20T11:29:16.919Z,4.10
2023-06-20T11:31:44.143Z,3.72
2023-06-20T11:34:12.545Z,2.60
2023-06-20T11:36:40.893Z,2.92
2023-06-20T11:39:12.802Z,3.20
2023-06-20T11:41:39.436Z,3.13
2023-06-20T11:44:22.872Z,3.10
2023-06-20T11:46:49.368Z,2.83
2023-06-20T11:49:29.962Z,3.28
2023-06-20T11:51:56.421Z,3.00
2023-06-20T11:54:24.223Z,3.30
2023-06-20T11:56:55.128Z,3.00
2023-06-20T11:59:25.473Z,2.97
2023-06-20T12:01:52.928Z,2.70
2023-06-20T12:04:20.901Z,2.80
2023-06-20T12:06:54.272Z,2.47
2023-06-20T12:09:22.966Z,3.10
2023-06-20T12:11:59.185Z,2.83
2023-06-20T12:14:26.577Z,2.92
2023-06-20T12:16:53.422Z,3.60
2023-06-20T12:19:21.169Z,3.40
2023-06-20T12:21:48.544Z,2.97
2023-06-20T12:24:15.220Z,3.13
2023-06-20T12:26:43.219Z,3.45
2023-06-20T12:29:09.985Z,2.78
2023-06-20T12:31:36.652Z,2.78
2023-06-20T12:34:03.174Z,3.03
2023-06-20T12:36:29.902Z,2.53
2023-06-20T12:38:56.457Z,2.42
2023-06-20T12:41:22.910Z,2.90
2023-06-20T12:43:49.336Z,2.60
2023-06-20T12:46:15.961Z,2.90
2023-06-20T12:48:42.432Z,2.60
2023-06-20T12:51:08.977Z,3.03
2023-06-20T12:53:36.372Z,2.80
2023-06-20T12:56:03.411Z,2.75
2023-06-20T12:58:33.344Z,3.00
2023-06-20T13:01:00.449Z,2.40
2023-06-20T13:03:27.814Z,2.78
2023-06-20T13:05:54.608Z,3.00
2023-06-20T13:08:21.217Z,2.40
2023-06-20T13:10:47.776Z,2.47
2023-06-20T13:13:14.409Z,2.93
2023-06-20T13:15:40.996Z,2.70
2023-06-20T13:18:09.642Z,2.90
2023-06-20T13:20:36.352Z,2.60
2023-06-20T13:23:03.555Z,2.60
2023-06-20T13:25:30.190Z,3.13
2023-06-20T13:27:57.010Z,2.85
2023-06-20T13:30:24.291Z,2.80
2023-06-20T13:32:51.154Z,2.63
2023-06-20T13:35:20.147Z,2.80
2023-06-20T13:37:46.601Z,2.30
2023-06-20T13:40:13.690Z,2.63
2023-06-20T13:42:43.274Z,2.63
2023-06-20T13:45:10.281Z,2.45
2023-06-20T13:47:36.938Z,2.40
2023-06-20T13:50:03.565Z,2.63
2023-06-20T13:52:30.001Z,2.47
2023-06-20T13:54:56.446Z,2.30
2023-06-20T13:57:22.920Z,2.20
2023-06-20T13:59:49.386Z,2.45
2023-06-20T14:02:15.842Z,2.33
2023-06-20T14:04:43.613Z,2.40
2023-06-20T14:07:10.113Z,2.38
2023-06-20T14:09:36.845Z,2.40
2023-06-20T14:12:03.914Z,2.30
2023-06-20T14:14:31.119Z,2.20
2023-06-20T14:16:58.042Z,2.53
2023-06-20T14:19:24.603Z,2.38
2023-06-20T14:21:51.190Z,2.28
2023-06-20T14:24:17.700Z,2.30
2023-06-20T14:26:44.263Z,2.30
2023-06-20T14:29:13.508Z,2.17
2023-06-20T14:31:40.101Z,2.38
2023-06-20T14:34:06.581Z,2.20
2023-06-20T14:36:36.166Z,2.20
2023-06-20T14:39:03.109Z,2.30
2023-06-20T14:41:29.492Z,2.38
2023-06-20T14:43:55.948Z,2.10
2023-06-20T14:46:22.535Z,2.20
2023-06-20T14:48:50.979Z,2.20
2023-06-20T14:51:18.005Z,1.90
2023-06-20T14:53:44.934Z,2.00
2023-06-20T14:56:11.492Z,1.90
2023-06-20T14:58:38.302Z,2.25
2023-06-20T15:01:04.787Z,2.17
2023-06-20T15:03:31.360Z,1.90
2023-06-20T15:05:58.825Z,2.20
2023-06-20T15:08:25.285Z,2.40
2023-06-20T15:10:51.846Z,2.08
2023-06-20T15:13:19.570Z,1.92
2023-06-20T15:15:46.067Z,2.10
2023-06-20T15:18:12.872Z,2.03
2023-06-20T15:20:39.484Z,1.98
2023-06-20T15:23:05.886Z,2.10
2023-06-20T15:25:32.393Z,2.50
2023-06-20T15:27:58.879Z,2.60
2023-06-20T15:30:27.579Z,2.30
2023-06-20T15:32:54.562Z,2.60
2023-06-20T15:35:21.060Z,2.58
2023-06-20T15:37:47.470Z,2.75
2023-06-20T15:40:14.457Z,2.50
2023-06-20T15:42:40.955Z,2.80
2023-06-20T15:45:07.994Z,2.30
2023-06-20T15:47:35.664Z,2.50
2023-06-20T15:50:02.837Z,2.40
2023-06-20T15:52:29.580Z,2.30
2023-06-20T15:54:56.517Z,2.97
2023-06-20T15:57:22.924Z,2.38
2023-06-20T15:59:51.077Z,2.15
2023-06-20T16:02:20.563Z,2.30
2023-06-20T16:04:48.600Z,2.27
2023-06-20T16:07:16.725Z,2.22
2023-06-20T16:09:43.659Z,1.70
2023-06-20T16:12:10.864Z,2.08
2023-06-20T16:14:39.004Z,1.90
2023-06-20T16:17:05.995Z,2.13
2023-06-20T16:19:32.637Z,1.98
2023-06-20T16:21:59.547Z,1.50
2023-06-20T16:24:26.670Z,1.50
2023-06-20T16:26:53.516Z,1.38
2023-06-20T16:29:19.998Z,1.40
2023-06-20T16:31:46.689Z,1.50
2023-06-20T16:34:13.347Z,1.60
2023-06-20T16:36:40.481Z,1.30
2023-06-20T16:39:10.077Z,1.42
2023-06-20T16:41:40.806Z,1.63
2023-06-20T16:44:07.230Z,1.80
2023-06-20T16:46:33.773Z,1.55
2023-06-20T16:49:00.399Z,1.50
2023-06-20T16:51:26.919Z,1.55
2023-06-20T16:53:53.478Z,2.10
2023-06-20T16:56:21.645Z,1.50
2023-06-20T16:58:49.565Z,1.40
2023-06-20T17:01:16.149Z,1.05
2023-06-20T17:03:42.767Z,1.25
2023-06-20T17:06:15.338Z,1.40
2023-06-20T17:08:41.897Z,0.95
2023-06-20T17:11:08.323Z,1.20
2023-06-20T17:13:34.804Z,1.20
2023-06-20T17:16:01.276Z,0.85
2023-06-20T17:18:27.772Z,0.90
2023-06-20T17:20:54.491Z,1.20
2023-06-20T17:23:20.937Z,1.05
2023-06-20T17:25:47.793Z,1.30
2023-06-20T17:28:17.146Z,1.30
2023-06-20T17:30:43.747Z,1.20
2023-06-20T17:33:12.327Z,1.30
2023-06-20T17:35:38.893Z,1.40
2023-06-20T17:38:05.362Z,1.45
2023-06-20T17:40:31.787Z,1.40
2023-06-20T17:42:58.201Z,1.70
2023-06-20T17:45:24.772Z,1.60
2023-06-20T17:47:51.381Z,1.77
2023-06-20T17:50:18.422Z,1.75
2023-06-20T17:52:44.895Z,1.30
2023-06-20T17:55:11.485Z,1.20
2023-06-20T17:57:54.777Z,1.42
2023-06-20T18:00:25.192Z,1.45
2023-06-20T18:02:52.504Z,1.50
2023-06-20T18:05:19.072Z,1.55
2023-06-20T18:07:45.551Z,1.43
2023-06-20T18:10:12.110Z,1.25
2023-06-20T18:12:42.241Z,1.77
2023-06-20T18:15:09.351Z,1.75
2023-06-20T18:17:35.959Z,1.52
2023-06-20T18:20:02.758Z,1.50
2023-06-20T18:22:29.243Z,1.60
2023-06-20T18:24:55.758Z,1.73
2023-06-20T18:27:22.590Z,2.00
2023-06-20T18:29:49.064Z,1.85
2023-06-20T18:32:18.368Z,1.83
2023-06-20T18:34:45.897Z,2.08
2023-06-20T18:37:12.459Z,1.70
2023-06-20T18:39:45.158Z,1.60
2023-06-20T18:42:11.682Z,1.45
2023-06-20T18:44:39.020Z,1.70
2023-06-20T18:47:05.944Z,1.70
2023-06-20T18:49:32.700Z,1.98
2023-06-20T18:51:59.257Z,1.80
2023-06-20T18:54:26.727Z,2.40
2023-06-20T18:56:53.169Z,2.27
2023-06-20T18:59:20.086Z,1.80
2023-06-20T19:01:46.848Z,2.25
2023-06-20T19:04:13.849Z,1.88
2023-06-20T19:06:45.833Z,2.30
2023-06-20T19:09:16.432Z,2.73
2023-06-20T19:11:43.362Z,2.30
2023-06-20T19:14:09.966Z,2.95
2023-06-20T19:16:36.493Z,2.78
2023-06-20T19:19:04.249Z,3.03
2023-06-20T19:21:30.920Z,3.03
2023-06-20T19:23:57.610Z,3.03
2023-06-20T19:26:24.662Z,3.35
2023-06-20T19:28:51.084Z,3.40
2023-06-20T19:31:17.975Z,3.55
2023-06-20T19:33:52.952Z,3.30
2023-06-20T19:36:20.179Z,3.60
2023-06-20T19:38:46.668Z,3.50
2023-06-20T19:41:13.146Z,3.47
2023-06-20T19:43:39.655Z,3.38
2023-06-20T19:46:06.194Z,3.60
2023-06-20T19:48:32.830Z,3.40
2023-06-20T19:50:59.369Z,3.63
2023-06-20T19:53:26.375Z,3.10
2023-06-20T19:55:52.856Z,3.40
2023-06-20T19:58:19.377Z,3.13
2023-06-20T20:00:49.101Z,3.53
2023-06-20T20:03:16.473Z,3.28
2023-06-20T20:05:43.796Z,3.90
2023-06-20T20:08:10.477Z,3.80
2023-06-20T20:10:36.978Z,3.80
2023-06-20T20:13:03.710Z,3.75
2023-06-20T20:15:30.374Z,3.58
2023-06-20T20:17:56.858Z,3.08
2023-06-20T20:20:23.463Z,3.17
2023-06-20T20:22:49.946Z,3.53
2023-06-20T20:25:17.190Z,3.35
2023-06-20T20:27:43.747Z,3.50
2023-06-20T20:30:10.816Z,4.03
2023-06-20T20:32:42.774Z,4.40
2023-06-20T20:35:10.727Z,4.70
2023-06-20T20:37:37.626Z,4.45
2023-06-20T20:40:06.250Z,4.25
2023-06-20T20:42:33.056Z,4.80
2023-06-20T20:44:59.565Z,5.13
2023-06-20T20:47:26.059Z,4.13
2023-06-20T20:49:52.523Z,5.35
2023-06-20T20:52:19.062Z,4.82
2023-06-20T20:54:47.701Z,5.35
2023-06-20T20:57:14.201Z,4.60
2023-06-20T20:59:40.661Z,5.07
2023-06-20T21:02:08.123Z,5.05
2023-06-20T21:04:36.805Z,5.50
2023-06-20T21:07:03.304Z,6.15
2023-06-20T21:09:29.773Z,6.28
2023-06-20T21:11:56.232Z,6.40
2023-06-20T21:14:22.802Z,6.50
2023-06-20T21:16:49.195Z,6.63
2023-06-20T21:19:15.665Z,6.53
2023-06-20T21:21:42.177Z,7.68
2023-06-20T21:24:08.971Z,7.33
2023-06-20T21:26:35.614Z,8.30
2023-06-20T21:29:02.169Z,7.55
2023-06-20T21:31:28.669Z,8.02
2023-06-20T21:33:55.129Z,8.45
2023-06-20T21:36:21.630Z,8.37
2023-06-20T21:38:48.146Z,8.68
2023-06-20T21:41:14.735Z,9.85
2023-06-20T21:43:41.132Z,10.00
2023-06-20T21:46:07.816Z,10.45
2023-06-20T21:48:34.399Z,10.20
2023-06-20T21:51:00.863Z,10.10
2023-06-20T21:53:27.267Z,10.27
2023-06-20T21:55:53.741Z,11.32
2023-06-20T21:58:20.276Z,10.80
2023-06-20T22:00:48.012Z,11.57
2023-06-20T22:03:15.365Z,12.07
2023-06-20T22:05:41.995Z,12.63
2023-06-20T22:08:08.854Z,11.88
2023-06-20T22:10:37.879Z,12.85
2023-06-20T22:13:08.492Z,12.40
2023-06-20T22:15:35.186Z,12.00
2023-06-20T22:18:01.729Z,12.05
2023-06-20T22:20:29.520Z,11.93
2023-06-20T22:22:56.757Z,13.27
2023-06-20T22:25:23.258Z,12.23
2023-06-20T22:27:49.714Z,12.65
2023-06-20T22:30:16.224Z,13.07
2023-06-20T22:32:43.524Z,12.82
2023-06-20T22:35:10.129Z,13.70
2023-06-20T22:37:36.553Z,12.73
2023-06-20T22:40:04.494Z,12.93
2023-06-20T22:42:31.071Z,13.05
2023-06-20T22:44:57.848Z,12.70
2023-06-20T22:47:24.419Z,13.10
2023-06-20T22:49:50.882Z,11.17
2023-06-20T22:52:17.514Z,11.30
2023-06-20T22:54:44.365Z,11.23
2023-06-20T22:57:10.844Z,11.07
2023-06-20T22:59:37.507Z,10.95
2023-06-20T23:02:04.089Z,11.17
2023-06-20T23:04:30.578Z,11.07
2023-06-20T23:06:57.096Z,10.63
2023-06-20T23:09:23.554Z,10.50
2023-06-20T23:11:50.076Z,11.05
2023-06-20T23:14:16.544Z,11.40
2023-06-20T23:16:44.699Z,11.52
2023-06-20T23:19:13.113Z,12.02
2023-06-20T23:21:39.767Z,12.55
2023-06-20T23:24:06.527Z,12.82
2023-06-20T23:26:36.882Z,13.37
2023-06-20T23:29:07.556Z,13.80
2023-06-20T23:31:34.270Z,13.95
2023-06-20T23:34:00.822Z,15.70
2023-06-20T23:36:28.194Z,15.07
2023-06-20T23:38:55.209Z,15.97
2023-06-20T23:41:21.877Z,17.00
2023-06-20T23:43:48.426Z,16.27
2023-06-20T23:46:15.209Z,15.95
2023-06-20T23:48:42.466Z,15.50
2023-06-20T23:51:09.173Z,16.47
2023-06-20T23:53:35.871Z,16.20
2023-06-20T23:56:02.419Z,16.60
2023-06-20T23:58:32.585Z,16.88
